createdAt,value
2019-03-25T00:01:22.812Z,14.83
2019-03-25T00:06:24.914Z,14.53
2019-03-25T00:11:26.910Z,14.67
2019-03-25T00:16:28.972Z,15.17
2019-03-25T00:21:31.066Z,14.87
2019-03-25T00:26:33.070Z,15.07
2019-03-25T00:31:35.084Z,15.50
2019-03-25T00:36:37.206Z,15.60
2019-03-25T00:41:39.207Z,16.17
2019-03-25T00:46:41.278Z,18.70
2019-03-25T00:51:43.357Z,18.90
2019-03-25T00:56:45.428Z,20.73
2019-03-25T01:01:47.730Z,21.63
2019-03-25T01:06:49.825Z,23.07
2019-03-25T01:11:51.897Z,24.50
2019-03-25T01:16:53.985Z,24.20
2019-03-25T01:21:56.064Z,23.93
2019-03-25T01:26:58.053Z,24.53
2019-03-25T01:32:00.064Z,24.17
2019-03-25T01:37:02.110Z,21.77
2019-03-25T01:42:04.194Z,26.50
2019-03-25T01:47:06.274Z,26.80
2019-03-25T01:52:08.365Z,25.67
2019-03-25T01:57:10.453Z,25.27
2019-03-25T02:02:12.441Z,25.57
2019-03-25T02:07:14.513Z,23.07
2019-03-25T02:12:16.501Z,23.53
2019-03-25T02:17:18.586Z,23.83
2019-03-25T02:22:20.665Z,21.20
2019-03-25T02:27:22.669Z,22.80
2019-03-25T02:32:24.720Z,22.10
2019-03-25T02:37:26.855Z,21.47
2019-03-25T02:42:28.891Z,19.93
2019-03-25T02:47:30.986Z,18.53
2019-03-25T02:52:33.069Z,17.93
2019-03-25T02:57:35.069Z,17.27
2019-03-25T03:02:37.128Z,17.50
2019-03-25T03:07:39.204Z,15.07
2019-03-25T03:12:41.293Z,16.13
2019-03-25T03:17:43.382Z,15.20
2019-03-25T03:22:45.475Z,15.17
2019-03-25T03:27:47.454Z,14.00
2019-03-25T03:32:49.538Z,13.53
2019-03-25T03:37:51.615Z,13.07
2019-03-25T03:42:53.695Z,13.07
2019-03-25T03:47:55.777Z,12.87
2019-03-25T03:52:57.857Z,12.03
2019-03-25T03:57:59.950Z,11.03
2019-03-25T04:03:02.335Z,10.03
2019-03-25T04:08:04.421Z,9.40
2019-03-25T04:13:06.501Z,9.27
2019-03-25T04:18:08.587Z,9.70
2019-03-25T04:23:10.673Z,10.03
2019-03-25T04:28:12.666Z,10.27
2019-03-25T04:33:14.665Z,9.70
2019-03-25T04:38:16.715Z,8.93
2019-03-25T04:43:18.820Z,9.77
2019-03-25T04:48:20.894Z,9.63
2019-03-25T04:53:22.969Z,11.03
2019-03-25T04:58:25.053Z,10.20
2019-03-25T05:03:27.150Z,10.40
2019-03-25T05:08:29.231Z,10.20
2019-03-25T05:13:31.313Z,11.03
2019-03-25T05:18:33.393Z,10.37
2019-03-25T05:23:35.486Z,10.83
2019-03-25T05:28:37.561Z,9.90
2019-03-25T05:33:39.657Z,10.33
2019-03-25T05:38:41.726Z,15.13
2019-03-25T05:43:43.823Z,12.93
2019-03-25T05:48:45.889Z,11.77
2019-03-25T05:53:47.980Z,11.43
2019-03-25T05:58:50.062Z,11.70
2019-03-25T06:03:52.147Z,11.37
2019-03-25T06:08:54.234Z,9.83
2019-03-25T06:13:56.316Z,9.07
2019-03-25T06:18:58.398Z,8.73
2019-03-25T06:24:00.382Z,8.23
2019-03-25T06:29:02.458Z,7.67
2019-03-25T06:34:04.469Z,8.73
2019-03-25T06:39:06.525Z,7.07
2019-03-25T06:44:08.530Z,7.60
2019-03-25T06:49:10.590Z,7.07
2019-03-25T06:54:12.587Z,6.43
2019-03-25T06:59:14.655Z,5.40
2019-03-25T07:04:17.540Z,5.37
2019-03-25T07:09:19.646Z,5.67
2019-03-25T07:14:21.742Z,6.10
2019-03-25T07:19:23.819Z,4.53
2019-03-25T07:24:25.812Z,6.60
2019-03-25T07:29:27.878Z,4.77
2019-03-25T07:34:29.882Z,7.03
2019-03-25T07:39:31.954Z,7.70
2019-03-25T07:44:33.956Z,6.93
2019-03-25T07:49:36.014Z,8.27
2019-03-25T07:54:38.020Z,5.73
2019-03-25T07:59:40.089Z,6.20
2019-03-25T08:04:42.098Z,5.53
2019-03-25T08:09:44.149Z,5.70
2019-03-25T08:14:46.155Z,4.90
2019-03-25T08:19:48.207Z,5.90
2019-03-25T08:24:50.192Z,5.70
2019-03-25T08:29:52.262Z,5.63
2019-03-25T08:34:54.257Z,5.27
2019-03-25T08:39:56.327Z,4.90
2019-03-25T08:44:58.348Z,4.50
2019-03-25T08:50:00.388Z,4.67
2019-03-25T08:55:02.499Z,4.67
2019-03-25T09:00:05.062Z,4.63
2019-03-25T09:05:07.770Z,4.73
2019-03-25T09:10:10.093Z,3.77
2019-03-25T09:15:12.326Z,4.23
2019-03-25T09:20:14.324Z,3.50
2019-03-25T09:25:16.421Z,3.20
2019-03-25T09:30:40.675Z,3.70
2019-03-25T09:35:42.750Z,3.47
2019-03-25T09:40:44.947Z,2.70
2019-03-25T09:45:46.902Z,3.27
2019-03-25T09:50:48.944Z,2.80
2019-03-25T09:55:50.957Z,3.70
2019-03-25T10:00:53.014Z,2.93
2019-03-25T10:05:54.998Z,2.97
2019-03-25T10:10:57.080Z,3.30
2019-03-25T10:15:59.126Z,2.73
2019-03-25T10:21:01.140Z,3.23
2019-03-25T10:26:03.466Z,2.83
2019-03-25T10:31:05.526Z,2.97
2019-03-25T10:36:07.530Z,3.60
2019-03-25T10:41:09.520Z,3.00
2019-03-25T10:46:11.548Z,2.87
2019-03-25T10:51:13.597Z,3.60
2019-03-25T10:56:15.600Z,3.57
2019-03-25T11:01:17.584Z,2.60
2019-03-25T11:06:19.703Z,2.90
2019-03-25T11:11:21.694Z,3.30
2019-03-25T11:16:23.760Z,3.03
2019-03-25T11:21:25.760Z,3.20
2019-03-25T11:26:27.834Z,3.40
2019-03-25T11:31:29.831Z,3.03
2019-03-25T11:36:31.894Z,2.63
2019-03-25T11:41:33.902Z,3.10
2019-03-25T11:46:35.968Z,3.10
2019-03-25T11:51:37.972Z,3.10
2019-03-25T11:56:40.035Z,2.93
2019-03-25T12:01:42.112Z,2.43
2019-03-25T12:06:44.192Z,3.50
2019-03-25T12:11:46.169Z,3.10
2019-03-25T12:16:48.257Z,3.83
2019-03-25T12:21:50.256Z,3.60
2019-03-25T12:26:52.316Z,3.30
2019-03-25T12:31:54.330Z,2.50
2019-03-25T12:36:56.400Z,3.27
2019-03-25T12:41:58.380Z,3.47
2019-03-25T12:47:00.449Z,3.03
2019-03-25T12:52:02.461Z,3.67
2019-03-25T12:57:04.524Z,3.23
2019-03-25T13:02:06.525Z,3.60
2019-03-25T13:07:08.576Z,4.00
2019-03-25T13:12:10.588Z,2.97
2019-03-25T13:17:12.649Z,4.30
2019-03-25T13:22:14.646Z,3.90
2019-03-25T13:27:16.717Z,3.83
2019-03-25T13:32:18.720Z,4.30
2019-03-25T13:37:20.786Z,3.47
2019-03-25T13:42:22.788Z,4.13
2019-03-25T13:47:24.849Z,3.87
2019-03-25T13:52:26.931Z,4.00
2019-03-25T13:57:30.960Z,3.10
2019-03-25T14:02:37.342Z,3.30
2019-03-25T14:07:39.355Z,3.50
2019-03-25T14:12:41.359Z,3.63
2019-03-25T14:17:43.442Z,3.77
2019-03-25T14:22:45.550Z,5.23
2019-03-25T14:27:47.611Z,2.80
2019-03-25T14:32:49.610Z,6.10
2019-03-25T14:37:52.001Z,4.50
2019-03-25T14:42:54.026Z,6.33
2019-03-25T14:47:56.134Z,6.93
2019-03-25T14:53:00.981Z,6.77
2019-03-25T14:58:03.067Z,8.10
2019-03-25T15:03:05.095Z,7.93
2019-03-25T15:08:07.139Z,7.93
2019-03-25T15:13:09.155Z,7.80
2019-03-25T15:18:15.463Z,7.60
2019-03-25T15:23:15.022Z,7.60
2019-03-25T15:28:17.042Z,6.40
2019-03-25T15:33:19.076Z,6.93
2019-03-25T15:38:21.101Z,8.30
2019-03-25T15:43:23.154Z,7.47
2019-03-25T15:48:25.226Z,7.33
2019-03-25T15:53:28.734Z,7.13
2019-03-25T15:58:31.064Z,7.87
2019-03-25T16:03:33.138Z,7.20
2019-03-25T16:08:35.208Z,6.50
2019-03-25T16:13:38.554Z,8.03
2019-03-25T16:18:40.893Z,7.03
2019-03-25T16:23:43.056Z,7.23
2019-03-25T16:28:45.156Z,7.13
2019-03-25T16:33:47.233Z,6.77
2019-03-25T16:38:50.658Z,6.30
2019-03-25T16:43:52.775Z,6.80
2019-03-25T16:48:55.262Z,6.83
2019-03-25T16:54:00.349Z,6.13
2019-03-25T16:59:01.613Z,6.53
2019-03-25T17:04:03.781Z,7.10
2019-03-25T17:09:06.425Z,6.83
2019-03-25T17:14:08.667Z,7.90
2019-03-25T17:19:11.059Z,8.10
2019-03-25T17:24:14.293Z,9.60
2019-03-25T17:29:16.658Z,8.23
2019-03-25T17:34:19.126Z,7.40
2019-03-25T17:39:21.439Z,6.87
2019-03-25T17:44:25.060Z,7.03
2019-03-25T17:49:30.398Z,7.83
2019-03-25T17:54:32.708Z,7.50
2019-03-25T17:59:37.698Z,6.80
2019-03-25T18:04:40.256Z,5.17
2019-03-25T18:09:43.055Z,2.90
2019-03-25T18:14:45.184Z,4.00
2019-03-25T18:19:47.402Z,3.70
2019-03-25T18:24:52.482Z,5.80
2019-03-25T18:29:56.347Z,4.23
2019-03-25T18:35:00.441Z,5.10
2019-03-25T18:40:03.214Z,4.87
2019-03-25T18:45:06.292Z,4.97
2019-03-25T18:50:13.796Z,5.43
2019-03-25T18:55:19.656Z,5.77
2019-03-25T19:00:39.975Z,6.10
2019-03-25T19:05:43.569Z,8.23
2019-03-25T19:10:45.720Z,7.17
2019-03-25T19:15:48.143Z,8.37
2019-03-25T19:20:58.486Z,8.30
2019-03-25T19:26:00.714Z,9.33
2019-03-25T19:31:04.640Z,8.63
2019-03-25T19:36:06.919Z,10.37
2019-03-25T19:41:09.316Z,10.67
2019-03-25T19:46:20.004Z,10.97
2019-03-25T19:51:22.278Z,12.33
2019-03-25T19:56:24.772Z,11.13
2019-03-25T20:01:28.220Z,13.87
2019-03-25T20:06:30.496Z,18.07
2019-03-25T20:11:32.764Z,16.40
2019-03-25T20:16:34.906Z,14.80
2019-03-25T20:21:37.260Z,15.43
2019-03-25T20:26:39.528Z,15.03
2019-03-25T20:31:41.926Z,16.80
2019-03-25T20:36:44.219Z,15.07
2019-03-25T20:41:46.610Z,15.00
2019-03-25T20:46:49.030Z,12.87
2019-03-25T20:51:51.384Z,10.63
2019-03-25T20:56:55.120Z,11.87
2019-03-25T21:01:57.504Z,15.47
2019-03-25T21:07:01.775Z,17.90
2019-03-25T21:12:05.585Z,18.67
2019-03-25T21:17:08.767Z,17.43
2019-03-25T21:22:11.744Z,15.67
2019-03-25T21:27:14.189Z,15.77
2019-03-25T21:32:16.512Z,15.57
2019-03-25T21:37:18.840Z,16.60
2019-03-25T21:42:24.091Z,15.40
2019-03-25T21:47:28.078Z,15.97
2019-03-25T21:52:30.835Z,18.37
2019-03-25T21:57:33.353Z,16.90
2019-03-25T22:02:35.812Z,16.83
2019-03-25T22:07:38.208Z,15.30
2019-03-25T22:12:42.232Z,15.43
2019-03-25T22:17:44.627Z,16.20
2019-03-25T22:22:47.015Z,14.83
2019-03-25T22:27:49.302Z,15.13
2019-03-25T22:32:53.334Z,14.57
2019-03-25T22:37:55.621Z,16.90
2019-03-25T22:42:57.911Z,14.03
2019-03-25T22:48:00.301Z,15.13
2019-03-25T22:53:02.588Z,16.30
2019-03-25T22:58:08.849Z,15.70
2019-03-25T23:03:17.336Z,14.00
2019-03-25T23:08:19.595Z,15.97
2019-03-25T23:13:21.926Z,15.17
2019-03-25T23:18:24.272Z,12.40
2019-03-25T23:23:26.563Z,12.53
2019-03-25T23:28:28.955Z,11.73
2019-03-25T23:33:31.139Z,10.97
2019-03-25T23:38:33.426Z,11.07
2019-03-25T23:43:35.619Z,9.90
2019-03-25T23:48:39.541Z,9.93
2019-03-25T23:53:41.932Z,9.77
2019-03-25T23:58:44.219Z,11.63
